createdAt,value
2018-06-14T00:00:43.528Z,10.40
2018-06-14T00:03:12.386Z,10.10
2018-06-14T00:05:41.229Z,9.97
2018-06-14T00:08:10.809Z,9.73
2018-06-14T00:10:39.654Z,9.37
2018-06-14T00:13:08.498Z,9.83
2018-06-14T00:15:37.340Z,13.00
2018-06-14T00:18:06.178Z,9.53
2018-06-14T00:20:35.024Z,8.83
2018-06-14T00:23:03.862Z,10.80
2018-06-14T00:25:32.703Z,10.77
2018-06-14T00:28:01.552Z,11.17
2018-06-14T00:30:30.399Z,11.20
2018-06-14T00:32:59.239Z,12.50
2018-06-14T00:35:28.075Z,9.57
2018-06-14T00:37:56.908Z,9.33
2018-06-14T00:40:26.499Z,10.37
2018-06-14T00:42:55.336Z,9.70
2018-06-14T00:45:24.976Z,10.13
2018-06-14T00:48:06.552Z,10.67
2018-06-14T00:50:35.394Z,9.80
2018-06-14T00:53:04.236Z,10.30
2018-06-14T00:55:33.075Z,11.30
2018-06-14T00:58:01.919Z,10.80
2018-06-14T01:00:30.751Z,10.20
2018-06-14T01:03:00.450Z,12.53
2018-06-14T01:05:29.296Z,10.50
2018-06-14T01:07:58.126Z,9.87
2018-06-14T01:10:27.714Z,9.40
2018-06-14T01:12:56.539Z,9.70
2018-06-14T01:15:25.387Z,10.03
2018-06-14T01:17:54.278Z,9.50
2018-06-14T01:20:23.074Z,9.07
2018-06-14T01:22:52.843Z,9.63
2018-06-14T01:25:21.699Z,10.63
2018-06-14T01:27:50.542Z,10.20
2018-06-14T01:30:19.403Z,10.40
2018-06-14T01:32:48.232Z,9.77
2018-06-14T01:35:17.071Z,10.27
2018-06-14T01:40:36.615Z,11.07
2018-06-14T01:43:05.515Z,9.40
2018-06-14T01:45:34.456Z,11.12
2018-06-14T01:48:03.219Z,10.40
2018-06-14T01:50:32.073Z,10.80
2018-06-14T01:53:00.909Z,9.43
2018-06-14T01:55:29.747Z,9.87
2018-06-14T01:57:58.580Z,8.33
2018-06-14T02:00:27.425Z,11.20
2018-06-14T02:02:56.261Z,9.83
2018-06-14T02:05:25.105Z,10.07
2018-06-14T02:07:54.553Z,9.50
2018-06-14T02:10:23.397Z,10.57
2018-06-14T02:12:52.236Z,10.43
2018-06-14T02:15:21.078Z,9.30
2018-06-14T02:17:50.506Z,9.83
2018-06-14T02:20:19.360Z,10.88
2018-06-14T02:22:48.206Z,8.63
2018-06-14T02:25:17.040Z,9.47
2018-06-14T02:27:45.877Z,9.87
2018-06-14T02:30:14.722Z,9.80
2018-06-14T02:32:43.550Z,9.83
2018-06-14T02:35:12.399Z,10.33
2018-06-14T02:37:41.995Z,10.80
2018-06-14T02:40:10.851Z,10.93
2018-06-14T02:42:39.704Z,11.40
2018-06-14T02:45:09.160Z,9.07
2018-06-14T02:47:38.007Z,10.40
2018-06-14T02:50:07.607Z,10.17
2018-06-14T02:52:36.456Z,10.50
2018-06-14T02:55:05.304Z,11.20
2018-06-14T02:57:34.136Z,10.53
2018-06-14T03:00:03.360Z,10.03
2018-06-14T03:02:32.953Z,10.87
2018-06-14T03:05:01.802Z,11.30
2018-06-14T03:07:30.652Z,10.10
2018-06-14T03:09:59.514Z,10.77
2018-06-14T03:12:28.361Z,11.52
2018-06-14T03:14:57.201Z,10.93
2018-06-14T03:17:26.051Z,10.10
2018-06-14T03:19:54.896Z,10.77
2018-06-14T03:22:23.731Z,10.23
2018-06-14T03:24:52.578Z,9.70
2018-06-14T03:27:22.163Z,9.77
2018-06-14T03:29:51.597Z,10.30
2018-06-14T03:32:20.455Z,10.50
2018-06-14T03:34:49.295Z,9.93
2018-06-14T03:37:18.131Z,9.67
2018-06-14T03:39:46.971Z,10.53
2018-06-14T03:42:15.816Z,10.03
2018-06-14T03:44:44.674Z,10.33
2018-06-14T03:47:13.520Z,9.90
2018-06-14T03:49:42.363Z,10.83
2018-06-14T03:52:11.204Z,10.47
2018-06-14T03:54:40.042Z,9.27
2018-06-14T03:57:08.890Z,10.80
2018-06-14T03:59:38.458Z,9.83
2018-06-14T04:02:07.309Z,11.27
2018-06-14T04:04:36.147Z,11.40
2018-06-14T04:07:04.992Z,10.77
2018-06-14T04:09:33.827Z,10.50
2018-06-14T04:12:03.406Z,9.87
2018-06-14T04:14:32.246Z,11.27
2018-06-14T04:17:01.078Z,9.27
2018-06-14T04:19:29.922Z,10.80
2018-06-14T04:21:59.582Z,10.63
2018-06-14T04:24:27.624Z,10.30
2018-06-14T04:26:56.459Z,9.43
2018-06-14T04:29:25.295Z,11.67
2018-06-14T04:31:54.140Z,10.23
2018-06-14T04:34:22.975Z,9.73
2018-06-14T04:36:51.822Z,10.20
2018-06-14T04:39:21.472Z,11.43
2018-06-14T04:41:50.271Z,11.70
2018-06-14T04:44:19.107Z,9.33
2018-06-14T04:46:48.699Z,8.80
2018-06-14T04:49:18.998Z,8.87
2018-06-14T04:51:47.829Z,8.40
2018-06-14T04:54:17.439Z,11.90
2018-06-14T04:56:47.030Z,10.10
2018-06-14T04:59:15.871Z,8.90
2018-06-14T05:01:44.715Z,8.73
2018-06-14T05:04:15.168Z,8.43
2018-06-14T05:06:44.015Z,8.53
2018-06-14T05:09:12.854Z,9.37
2018-06-14T05:11:41.699Z,9.43
2018-06-14T05:14:10.543Z,9.13
2018-06-14T05:16:39.381Z,9.63
2018-06-14T05:19:08.221Z,9.30
2018-06-14T05:21:37.064Z,11.07
2018-06-14T05:24:05.920Z,10.27
2018-06-14T05:26:34.756Z,9.55
2018-06-14T05:29:03.592Z,9.57
2018-06-14T05:31:32.426Z,9.30
2018-06-14T05:34:02.015Z,9.73
2018-06-14T05:36:30.850Z,11.23
2018-06-14T05:38:59.689Z,8.83
2018-06-14T05:41:28.522Z,9.17
2018-06-14T05:43:57.377Z,12.77
2018-06-14T05:46:26.253Z,11.13
2018-06-14T05:48:55.101Z,9.97
2018-06-14T05:51:23.945Z,9.80
2018-06-14T05:53:52.784Z,10.37
2018-06-14T05:56:21.630Z,10.57
2018-06-14T05:58:51.456Z,9.93
2018-06-14T06:01:21.038Z,10.07
2018-06-14T06:03:49.885Z,11.77
2018-06-14T06:06:18.728Z,10.87
2018-06-14T06:08:47.581Z,10.97
2018-06-14T06:11:16.425Z,10.45
2018-06-14T06:13:46.009Z,10.77
2018-06-14T06:16:15.898Z,10.37
2018-06-14T06:18:44.729Z,10.73
2018-06-14T06:21:14.425Z,14.50
2018-06-14T06:23:44.019Z,10.77
2018-06-14T06:26:12.945Z,12.07
2018-06-14T06:28:41.700Z,8.90
2018-06-14T06:31:10.546Z,9.33
2018-06-14T06:33:39.388Z,10.13
2018-06-14T06:36:08.235Z,9.73
2018-06-14T06:38:37.091Z,10.93
2018-06-14T06:41:06.691Z,10.53
2018-06-14T06:43:35.529Z,12.20
2018-06-14T06:46:04.380Z,9.87
2018-06-14T06:48:33.953Z,11.27
2018-06-14T06:51:02.805Z,10.30
2018-06-14T06:53:31.646Z,9.87
2018-06-14T06:56:01.231Z,10.27
2018-06-14T06:58:30.057Z,10.33
2018-06-14T07:00:58.891Z,9.13
2018-06-14T07:03:27.732Z,10.93
2018-06-14T07:05:56.645Z,10.27
2018-06-14T07:08:25.469Z,13.93
2018-06-14T07:10:54.293Z,13.73
2018-06-14T07:13:23.882Z,17.03
2018-06-14T07:15:52.723Z,15.33
2018-06-14T07:18:21.563Z,11.20
2018-06-14T07:20:50.401Z,11.53
2018-06-14T07:23:19.253Z,12.47
2018-06-14T07:25:48.859Z,11.23
2018-06-14T07:28:17.713Z,16.35
2018-06-14T07:30:46.572Z,11.73
2018-06-14T07:33:15.408Z,10.90
2018-06-14T07:35:44.256Z,11.60
2018-06-14T07:38:13.109Z,11.93
2018-06-14T07:40:41.961Z,13.07
2018-06-14T07:43:10.808Z,13.75
2018-06-14T07:45:39.679Z,14.13
2018-06-14T07:48:09.264Z,11.63
2018-06-14T07:50:38.129Z,12.97
2018-06-14T07:53:07.040Z,11.53
2018-06-14T07:55:36.468Z,10.30
2018-06-14T07:58:06.050Z,12.30
2018-06-14T08:00:34.904Z,11.57
2018-06-14T08:03:03.752Z,12.10
2018-06-14T08:05:32.597Z,12.83
2018-06-14T08:08:01.445Z,12.60
2018-06-14T08:10:30.553Z,13.03
2018-06-14T08:12:59.167Z,12.57
2018-06-14T08:15:28.004Z,12.90
2018-06-14T08:17:57.629Z,10.17
2018-06-14T08:20:26.459Z,12.57
2018-06-14T08:22:55.302Z,12.68
2018-06-14T08:25:24.152Z,10.60
2018-06-14T08:27:53.016Z,13.17
2018-06-14T08:30:21.867Z,10.57
2018-06-14T08:32:51.867Z,8.70
2018-06-14T08:35:19.541Z,8.63
2018-06-14T08:37:48.376Z,8.63
2018-06-14T08:40:17.214Z,8.63
2018-06-14T08:42:46.050Z,7.33
2018-06-14T08:45:14.892Z,8.17
2018-06-14T08:47:43.744Z,8.30
2018-06-14T08:50:12.585Z,5.83
2018-06-14T08:52:41.422Z,5.37
2018-06-14T08:55:10.255Z,4.50
2018-06-14T08:57:39.100Z,4.23
2018-06-14T09:00:08.322Z,5.73
2018-06-14T09:02:37.900Z,4.03
2018-06-14T09:05:06.736Z,6.20
2018-06-14T09:07:35.580Z,6.83
2018-06-14T09:10:05.593Z,4.87
2018-06-14T09:12:33.285Z,4.67
2018-06-14T09:15:02.865Z,5.95
2018-06-14T09:17:31.716Z,4.25
2018-06-14T09:20:00.559Z,4.37
2018-06-14T09:22:30.339Z,5.15
2018-06-14T09:24:59.178Z,4.95
2018-06-14T09:27:28.759Z,4.68
2018-06-14T09:29:57.713Z,5.47
2018-06-14T09:32:26.460Z,6.20
2018-06-14T09:34:55.301Z,5.82
2018-06-14T09:37:24.133Z,7.20
2018-06-14T09:39:53.718Z,5.93
2018-06-14T09:42:22.572Z,5.53
2018-06-14T09:44:51.408Z,5.57
2018-06-14T09:47:20.259Z,6.87
2018-06-14T09:49:49.103Z,6.55
2018-06-14T09:52:17.983Z,7.30
2018-06-14T09:54:46.780Z,6.72
2018-06-14T09:57:16.373Z,5.82
2018-06-14T09:59:45.208Z,5.22
2018-06-14T10:02:14.054Z,6.37
2018-06-14T10:04:42.918Z,5.10
2018-06-14T10:07:11.758Z,5.85
2018-06-14T10:09:40.604Z,5.55
2018-06-14T10:12:09.438Z,5.35
2018-06-14T10:14:38.987Z,6.10
2018-06-14T10:17:07.882Z,4.78
2018-06-14T10:19:36.715Z,5.10
2018-06-14T10:22:05.565Z,4.87
2018-06-14T10:24:34.407Z,5.45
2018-06-14T10:27:03.260Z,9.93
2018-06-14T10:29:32.854Z,4.78
2018-06-14T10:32:01.704Z,5.62
2018-06-14T10:34:30.539Z,8.30
2018-06-14T10:36:59.390Z,6.50
2018-06-14T10:39:28.227Z,8.18
2018-06-14T10:41:57.071Z,5.25
2018-06-14T10:44:25.905Z,6.93
2018-06-14T10:46:55.487Z,6.37
2018-06-14T10:49:24.319Z,4.50
2018-06-14T10:51:53.434Z,7.00
2018-06-14T10:54:22.143Z,6.32
2018-06-14T10:56:50.979Z,5.65
2018-06-14T10:59:20.563Z,7.72
2018-06-14T11:01:50.146Z,6.32
2018-06-14T11:04:19.013Z,5.87
2018-06-14T11:06:47.851Z,5.10
2018-06-14T11:09:17.433Z,5.60
2018-06-14T11:11:46.272Z,6.70
2018-06-14T11:14:15.113Z,7.35
2018-06-14T11:16:43.957Z,5.30
2018-06-14T11:19:12.797Z,5.78
2018-06-14T11:21:41.643Z,5.97
2018-06-14T11:24:10.485Z,4.43
2018-06-14T11:26:39.347Z,4.87
2018-06-14T11:29:08.192Z,6.45
2018-06-14T11:31:38.288Z,7.87
2018-06-14T11:34:05.931Z,5.80
2018-06-14T11:36:34.769Z,5.20
2018-06-14T11:39:03.617Z,7.93
2018-06-14T11:41:32.465Z,5.25
2018-06-14T11:44:01.316Z,6.15
2018-06-14T11:46:31.722Z,6.00
2018-06-14T11:49:00.565Z,6.67
2018-06-14T11:51:30.202Z,4.87
2018-06-14T11:53:59.044Z,6.25
2018-06-14T11:56:27.894Z,7.62
2018-06-14T11:58:56.740Z,5.87
2018-06-14T12:01:25.576Z,4.57
2018-06-14T12:03:54.988Z,7.15
2018-06-14T12:06:23.838Z,4.53
2018-06-14T12:08:52.674Z,7.00
2018-06-14T12:11:21.530Z,6.00
2018-06-14T12:13:51.707Z,6.32
2018-06-14T12:16:19.237Z,5.62
2018-06-14T12:18:48.826Z,6.35
2018-06-14T12:21:17.680Z,6.03
2018-06-14T12:23:46.506Z,8.20
2018-06-14T12:26:15.359Z,5.47
2018-06-14T12:28:44.198Z,5.70
2018-06-14T12:31:13.775Z,6.53
2018-06-14T12:33:42.613Z,5.32
2018-06-14T12:36:12.202Z,5.62
2018-06-14T12:38:41.056Z,7.25
2018-06-14T12:41:09.904Z,5.60
2018-06-14T12:43:38.753Z,6.37
2018-06-14T12:46:08.333Z,6.30
2018-06-14T12:48:37.177Z,6.62
2018-06-14T12:51:06.765Z,6.25
2018-06-14T12:53:35.615Z,6.60
2018-06-14T12:56:04.478Z,6.60
2018-06-14T12:58:33.345Z,7.22
2018-06-14T13:01:02.163Z,6.40
2018-06-14T13:03:31.004Z,6.47
2018-06-14T13:05:59.860Z,5.80
2018-06-14T13:08:28.725Z,6.32
2018-06-14T13:10:57.576Z,6.62
2018-06-14T13:13:26.419Z,7.35
2018-06-14T13:15:55.292Z,5.45
2018-06-14T13:18:24.128Z,5.32
2018-06-14T13:20:52.991Z,5.57
2018-06-14T13:23:21.846Z,5.90
2018-06-14T13:25:51.427Z,5.32
2018-06-14T13:28:20.862Z,7.65
2018-06-14T13:30:49.703Z,6.43
2018-06-14T13:33:18.546Z,7.55
2018-06-14T13:35:47.402Z,5.50
2018-06-14T13:38:16.289Z,5.30
2018-06-14T13:40:45.130Z,5.62
2018-06-14T13:43:13.982Z,5.55
2018-06-14T13:45:42.857Z,7.00
2018-06-14T13:48:12.940Z,6.45
2018-06-14T13:50:41.803Z,7.85
2018-06-14T13:53:10.623Z,5.47
2018-06-14T13:55:39.485Z,5.10
2018-06-14T13:58:08.319Z,5.55
2018-06-14T14:00:37.156Z,4.85
2018-06-14T14:03:06.003Z,5.80
2018-06-14T14:05:34.851Z,5.50
2018-06-14T14:08:03.692Z,4.75
2018-06-14T14:10:32.540Z,5.03
2018-06-14T14:13:01.391Z,4.82
2018-06-14T14:15:30.982Z,5.20
2018-06-14T14:17:59.856Z,4.80
2018-06-14T14:20:28.661Z,5.28
2018-06-14T14:22:58.252Z,5.47
2018-06-14T14:25:27.101Z,6.35
2018-06-14T14:27:55.944Z,5.85
2018-06-14T14:30:25.528Z,6.43
2018-06-14T14:32:54.383Z,6.28
2018-06-14T14:35:23.220Z,6.15
2018-06-14T14:37:52.067Z,6.28
2018-06-14T14:40:20.921Z,6.30
2018-06-14T14:42:50.522Z,9.38
2018-06-14T14:45:20.106Z,5.68
2018-06-14T14:47:48.971Z,6.17
2018-06-14T14:50:17.803Z,6.18
2018-06-14T14:52:46.658Z,6.30
2018-06-14T14:55:15.497Z,6.47
2018-06-14T14:57:44.374Z,6.82
2018-06-14T15:00:13.991Z,6.80
2018-06-14T15:02:42.840Z,6.53
2018-06-14T15:05:11.687Z,5.90
2018-06-14T15:07:40.542Z,9.48
2018-06-14T15:10:09.401Z,6.22
2018-06-14T15:12:38.236Z,6.40
2018-06-14T15:15:07.816Z,6.50
2018-06-14T15:17:36.680Z,6.05
2018-06-14T15:20:05.517Z,6.50
2018-06-14T15:22:35.139Z,6.82
2018-06-14T15:25:04.003Z,6.43
2018-06-14T15:27:32.842Z,6.97
2018-06-14T15:30:01.676Z,7.53
2018-06-14T15:32:30.524Z,5.95
2018-06-14T15:34:59.364Z,6.55
2018-06-14T15:37:28.956Z,6.70
2018-06-14T15:39:58.386Z,6.22
2018-06-14T15:42:27.235Z,6.60
2018-06-14T15:44:56.121Z,6.37
2018-06-14T15:47:24.971Z,5.90
2018-06-14T15:49:53.812Z,6.07
2018-06-14T15:52:22.669Z,6.37
2018-06-14T15:54:51.555Z,6.60
2018-06-14T15:57:20.352Z,6.72
2018-06-14T15:59:49.192Z,6.37
2018-06-14T16:02:18.036Z,6.85
2018-06-14T16:04:46.925Z,6.32
2018-06-14T16:07:15.707Z,6.50
2018-06-14T16:09:44.561Z,6.05
2018-06-14T16:12:13.587Z,6.20
2018-06-14T16:14:42.251Z,5.97
2018-06-14T16:17:11.089Z,6.18
2018-06-14T16:19:40.676Z,6.00
2018-06-14T16:22:09.561Z,6.95
2018-06-14T16:24:38.372Z,6.40
2018-06-14T16:27:07.208Z,6.20
2018-06-14T16:29:36.057Z,6.43
2018-06-14T16:32:04.900Z,6.00
2018-06-14T16:34:33.745Z,7.37
2018-06-14T16:37:03.376Z,5.65
2018-06-14T16:39:32.218Z,7.07
2018-06-14T16:42:01.069Z,6.62
2018-06-14T16:44:29.911Z,6.65
2018-06-14T16:46:58.757Z,7.53
2018-06-14T16:49:27.603Z,6.57
2018-06-14T16:51:56.454Z,8.85
2018-06-14T16:54:25.291Z,7.30
2018-06-14T16:56:54.882Z,7.20
2018-06-14T16:59:23.749Z,6.95
2018-06-14T17:01:52.579Z,6.37
2018-06-14T17:04:21.451Z,6.07
2018-06-14T17:06:50.289Z,5.78
2018-06-14T17:09:19.207Z,6.10
2018-06-14T17:11:49.007Z,6.97
2018-06-14T17:14:17.574Z,6.95
2018-06-14T17:16:46.411Z,7.20
2018-06-14T17:19:15.986Z,7.65
2018-06-14T17:21:44.835Z,7.95
2018-06-14T17:24:13.688Z,6.72
2018-06-14T17:26:43.125Z,6.87
2018-06-14T17:29:11.969Z,7.43
2018-06-14T17:31:40.822Z,8.35
2018-06-14T17:34:09.664Z,6.65
2018-06-14T17:36:39.282Z,7.25
2018-06-14T17:39:08.883Z,7.22
2018-06-14T17:41:37.823Z,6.78
2018-06-14T17:44:06.584Z,7.32
2018-06-14T17:46:35.417Z,6.87
2018-06-14T17:49:04.263Z,7.03
2018-06-14T17:51:33.113Z,7.45
2018-06-14T17:54:01.955Z,7.40
2018-06-14T17:56:30.794Z,6.30
2018-06-14T17:58:59.631Z,6.97
2018-06-14T18:01:28.512Z,6.72
2018-06-14T18:03:58.072Z,6.28
2018-06-14T18:06:26.931Z,7.82
2018-06-14T18:08:55.776Z,6.50
2018-06-14T18:11:25.372Z,6.15
2018-06-14T18:13:54.218Z,8.75
2018-06-14T18:16:23.074Z,7.10
2018-06-14T18:18:51.919Z,6.47
2018-06-14T18:21:20.782Z,5.97
2018-06-14T18:23:49.615Z,6.22
2018-06-14T18:26:18.472Z,7.12
2018-06-14T18:28:47.314Z,6.85
2018-06-14T18:31:16.169Z,6.95
2018-06-14T18:33:45.025Z,7.65
2018-06-14T18:36:13.866Z,8.43
2018-06-14T18:38:43.460Z,9.48
2018-06-14T18:41:12.324Z,7.30
2018-06-14T18:43:41.176Z,7.10
2018-06-14T18:46:10.764Z,7.40
2018-06-14T18:48:40.340Z,6.50
2018-06-14T18:51:09.194Z,7.90
2018-06-14T18:53:38.034Z,7.43
2018-06-14T18:56:06.879Z,7.68
2018-06-14T18:58:35.724Z,7.28
2018-06-14T19:01:04.562Z,7.40
2018-06-14T19:03:33.404Z,7.62
2018-06-14T19:06:03.011Z,6.90
2018-06-14T19:08:31.843Z,6.97
2018-06-14T19:11:00.688Z,6.87
2018-06-14T19:13:30.293Z,8.07
2018-06-14T19:15:59.148Z,7.30
2018-06-14T19:18:27.981Z,6.87
2018-06-14T19:20:57.574Z,7.18
2018-06-14T19:23:26.435Z,7.18
2018-06-14T19:25:55.319Z,7.55
2018-06-14T19:28:24.132Z,7.30
2018-06-14T19:30:53.715Z,7.18
2018-06-14T19:33:22.553Z,6.85
2018-06-14T19:35:51.432Z,7.18
2018-06-14T19:38:20.293Z,7.75
2018-06-14T19:40:49.142Z,7.90
2018-06-14T19:43:18.000Z,7.40
2018-06-14T19:45:46.825Z,7.87
2018-06-14T19:48:15.689Z,7.07
2018-06-14T19:50:44.592Z,8.43
2018-06-14T19:53:13.448Z,8.00
2018-06-14T19:55:42.347Z,7.18
2018-06-14T19:58:11.190Z,7.15
2018-06-14T20:00:40.025Z,7.60
2018-06-14T20:03:10.673Z,7.47
2018-06-14T20:05:39.491Z,9.43
2018-06-14T20:08:08.331Z,8.30
2018-06-14T20:10:37.919Z,6.35
2018-06-14T20:13:06.772Z,11.32
2018-06-14T20:15:40.616Z,6.68
2018-06-14T20:18:05.227Z,7.90
2018-06-14T20:20:34.899Z,8.32
2018-06-14T20:23:04.265Z,8.50
2018-06-14T20:25:33.171Z,8.15
2018-06-14T20:28:03.869Z,8.20
2018-06-14T20:30:32.489Z,8.05
2018-06-14T20:33:01.341Z,7.47
2018-06-14T20:35:30.199Z,7.10
2018-06-14T20:37:59.034Z,8.05
2018-06-14T20:40:27.895Z,8.10
2018-06-14T20:42:56.838Z,8.32
2018-06-14T20:45:25.608Z,8.55
2018-06-14T20:47:54.456Z,8.90
2018-06-14T20:50:23.314Z,8.98
2018-06-14T20:52:54.599Z,7.85
2018-06-14T20:55:25.656Z,8.52
2018-06-14T20:57:54.500Z,12.00
2018-06-14T21:00:23.348Z,8.88
2018-06-14T21:02:52.192Z,8.35
2018-06-14T21:05:21.048Z,8.95
2018-06-14T21:07:52.448Z,10.23
2018-06-14T21:10:22.032Z,10.43
2018-06-14T21:12:50.885Z,10.45
2018-06-14T21:15:19.735Z,9.70
2018-06-14T21:17:48.605Z,10.45
2018-06-14T21:20:17.463Z,11.63
2018-06-14T21:22:46.301Z,10.52
2018-06-14T21:25:15.897Z,9.50
2018-06-14T21:27:44.765Z,9.50
2018-06-14T21:30:13.618Z,10.52
2018-06-14T21:32:42.460Z,9.02
2018-06-14T21:35:12.046Z,9.25
2018-06-14T21:37:40.909Z,8.90
2018-06-14T21:40:10.650Z,9.57
2018-06-14T21:42:39.493Z,10.37
2018-06-14T21:45:08.356Z,10.33
2018-06-14T21:47:37.175Z,9.50
2018-06-14T21:50:06.017Z,10.23
2018-06-14T21:52:34.861Z,10.57
2018-06-14T21:55:03.808Z,10.63
2018-06-14T21:57:32.661Z,11.13
2018-06-14T22:00:01.515Z,10.23
2018-06-14T22:02:30.351Z,8.87
2018-06-14T22:04:59.187Z,7.97
2018-06-14T22:07:28.776Z,7.07
2018-06-14T22:09:58.202Z,7.80
2018-06-14T22:12:27.045Z,8.07
2018-06-14T22:14:55.893Z,7.70
2018-06-14T22:17:24.733Z,6.57
2018-06-14T22:19:53.574Z,6.07
2018-06-14T22:22:22.452Z,5.60
2018-06-14T22:24:51.279Z,5.10
2018-06-14T22:27:20.823Z,8.13
2018-06-14T22:29:49.658Z,4.63
2018-06-14T22:32:18.511Z,5.23
2018-06-14T22:35:04.215Z,3.70
2018-06-14T22:37:33.068Z,3.60
2018-06-14T22:40:01.901Z,4.53
2018-06-14T22:42:30.751Z,5.47
2018-06-14T22:44:59.720Z,4.53
2018-06-14T22:47:28.446Z,4.60
2018-06-14T22:49:58.028Z,3.40
2018-06-14T22:52:26.868Z,4.23
2018-06-14T22:54:55.714Z,3.50
2018-06-14T22:57:25.579Z,3.30
2018-06-14T22:59:54.438Z,6.90
2018-06-14T23:02:23.306Z,3.47
2018-06-14T23:04:52.146Z,3.33
2018-06-14T23:07:20.986Z,3.43
2018-06-14T23:10:07.706Z,4.93
2018-06-14T23:12:36.552Z,3.70
2018-06-14T23:15:05.410Z,3.60
2018-06-14T23:17:34.235Z,4.57
2018-06-14T23:20:03.133Z,3.47
2018-06-14T23:22:32.708Z,3.73
2018-06-14T23:25:02.678Z,3.83
2018-06-14T23:27:30.406Z,4.67
2018-06-14T23:29:59.240Z,4.55
2018-06-14T23:32:28.823Z,3.50
2018-06-14T23:34:57.673Z,4.37
2018-06-14T23:37:26.513Z,3.53
2018-06-14T23:39:55.380Z,3.50
2018-06-14T23:42:24.214Z,3.85
2018-06-14T23:44:53.058Z,4.13
2018-06-14T23:47:21.909Z,3.37
2018-06-14T23:49:50.743Z,4.00
2018-06-14T23:52:19.587Z,3.97
2018-06-14T23:54:48.421Z,5.65
2018-06-14T23:57:17.265Z,4.80
2018-06-14T23:59:46.107Z,3.90
